Accueil
METAR-TAF:

METAR-TAF

Aéroports :

Florennes, Belgique

Base aérienne de Florennes

latitude: 50-14N, longitude: 004-39E, altitude: 279 m

Observation

Le bulletin a été fait il y a 32 minutes, à 11:25 UTC
Vent 9 kt de sud
Température 26°C
Humidité 51%
Pression 1015 hPa
Visibilité 10 km ou plus
Nuages épars à une hauteur de 25000 ft

METAR: EBFS 231125Z 17009KT 9999 SCT250 26/15 Q1015 BLU BLU

Heure: 13:57 (11:57 UTC)

Prévision

Le bulletin a été fait il y a 2 heures et 56 minutes, à 09:01 UTC
Prévision valable du 23 à 10 UTC au 23 à 19 UTC
Vent 5 kt de sud
Visibilité 10 km ou plus
Quelques nuages à une hauteur de 10000 ft
Nuages épars à une hauteur de 23000 ft
Evoluant progressivement
du 23 à 12 UTC au 23 à 14 UTC
Vent 5 kt de sud
Quelques nuages à une hauteur de 3000 ft
Nuages épars à une hauteur de 10000 ft

TAF: EBFS 230901Z 2310/2319 17005KT 9999 FEW100 SCT230 BECMG 2312/2314 19005KT FEW030 SCT100

Observations et prévisions météorologiques de plus de 4000 aéroports (messages METAR et TAF).

Les stations disponibles sont représentées par des disques jaunes et rouges sur la carte.

Passer la souris dessus pour voir le nom de la station.

Cliquer dessus pour voir les observations et prévisions météorologiques.

Pour changer de carte: cliquez sur les boutons verts avec une croix noire pour zoomer, sur le bouton vert avec un tiret pour effectuer un zoom arrière, ou sur les flèches vertes pour les cartes adjacentes.


METAR-TAF: